Mercury Sky — 9V5148 — position and weather

sailwx.info

Track history (hours):
 
Tides and Currents Weather Stations Pressure Air Temp Water Temp Dewpoint Dewpoint Depression Visibility Wind Speed Wind Dir Waves Ship Positions

Mercury Sky

Last reported at 2017-Nov-11 17:40 UTC. Time now 2017-Nov-23 03:58 UTC.
Position N 10°32' W 075°49'.
Warning: this ship's position is 11 days out of date.

Length 199 m; draft 12.3 m.

Type: Cargo ship. MMSI: 563020500.

Date/timePositionNaut miles runAvg speedWind from/ knotsBaromVisibWave heightAir tempDewpointWater temp
2017-Nov-11 17:40N 10°32' W 075°49'213.2
2017-Nov-11 17:30N 10°30' W 075°49'712.9
2017-Nov-11 17:00N 10°23' W 075°49'4 9.0
2017-Nov-11 16:30N 10°20' W 075°46'611.8
2017-Nov-11 16:00N 10°19' W 075°40'4 8.9
2017-Nov-11 15:30N 10°19' W 075°35'3 5.7
2017-Nov-11 15:00N 10°20' W 075°32'2 3.4
2017-Nov-11 14:30N 10°21' W 075°31'0 0.9
2017-Nov-11 14:00N 10°21' W 075°30'0 0.0
2017-Nov-11 13:29N 10°21' W 075°30'0 0.0
2017-Nov-11 12:59N 10°21' W 075°30'0 0.0
2017-Nov-11 12:29N 10°21' W 075°30'0 0.0
2017-Nov-11 11:59N 10°21' W 075°30'0 0.0
2017-Nov-11 11:29N 10°21' W 075°30'0 0.0
2017-Nov-11 10:59N 10°21' W 075°30'0 0.0
2017-Nov-11 10:29N 10°21' W 075°30'0 0.0
2017-Nov-11 09:59N 10°21' W 075°30'0 0.0
2017-Nov-11 09:29N 10°21' W 075°30'0 0.0
2017-Nov-11 08:08N 10°21' W 075°30'0 0.0
2017-Nov-11 07:59N 10°21' W 075°30'0 0.0
2017-Nov-11 07:29N 10°21' W 075°30'0 0.0
2017-Nov-11 06:59N 10°21' W 075°30'0 0.0
2017-Nov-11 06:26N 10°21' W 075°30'0 0.0
2017-Nov-11 05:59N 10°21' W 075°30'0 0.0
2017-Nov-11 05:29N 10°21' W 075°30'0 0.0
2017-Nov-11 04:59N 10°21' W 075°30'0 0.0
2017-Nov-11 04:29N 10°21' W 075°30'0 0.0
2017-Nov-11 03:59N 10°21' W 075°30'0 0.0
2017-Nov-11 03:29N 10°21' W 075°30'0 0.0
2017-Nov-11 02:59N 10°21' W 075°30'0 0.0
2017-Nov-11 02:29N 10°21' W 075°30'0 0.0
2017-Nov-11 01:59N 10°21' W 075°30'0 0.0
2017-Nov-11 01:29N 10°21' W 075°30'0 0.0
2017-Nov-11 00:59N 10°21' W 075°30'0 0.0
2017-Nov-11 00:29N 10°21' W 075°30'0 0.0
2017-Nov-10 23:59N 10°21' W 075°30'0 0.0
2017-Nov-10 23:29N 10°21' W 075°30'0 0.0
2017-Nov-10 22:59N 10°21' W 075°30'0 0.0
2017-Nov-10 22:29N 10°21' W 075°30'0 0.0
2017-Nov-10 21:59N 10°21' W 075°30'0 0.0
2017-Nov-10 21:29N 10°21' W 075°30'0 0.0
2017-Nov-10 20:59N 10°21' W 075°30'0 0.0
2017-Nov-10 20:29N 10°21' W 075°30'0 0.0
2017-Nov-10 19:59N 10°21' W 075°30'0 0.0
2017-Nov-10 19:29N 10°21' W 075°30'0 0.0
2017-Nov-10 18:59N 10°21' W 075°30'0 0.0
2017-Nov-10 18:29N 10°21' W 075°30'0 0.0
2017-Nov-10 17:59N 10°21' W 075°30'0 0.0
2017-Nov-10 17:29N 10°21' W 075°30'0 0.0
2017-Nov-10 16:59N 10°21' W 075°30'0 0.0
2017-Nov-10 16:29N 10°21' W 075°30'0 0.0
2017-Nov-10 15:59N 10°21' W 075°30'0 0.0
2017-Nov-10 15:29N 10°21' W 075°30'0 0.0
2017-Nov-10 14:59N 10°21' W 075°30'0 0.0
2017-Nov-10 14:17N 10°21' W 075°30'0 0.0
2017-Nov-10 13:59N 10°21' W 075°30'1 0.1
2017-Nov-09 17:02N 10°20' W 075°31'1 7.9
2017-Nov-09 16:54N 10°19' W 075°32'410.5
2017-Nov-09 16:30N 10°19' W 075°37'3 5.8
2017-Nov-09 16:00N 10°19' W 075°40'4 7.9
2017-Nov-09 15:30N 10°19' W 075°44'611.2
2017-Nov-09 15:00N 10°25' W 075°44'  
Track history (hours):
 
Tides and Currents Weather Stations Pressure Air Temp Water Temp Dewpoint Dewpoint Depression Visibility Wind Speed Wind Dir Waves Ship Positions

Mercury Sky

Last reported at 2017-Nov-11 17:40 UTC. Time now 2017-Nov-23 03:58 UTC.
Position N 10°32' W 075°49'.
Warning: this ship's position is 11 days out of date.

Length 199 m; draft 12.3 m.

Type: Cargo ship. MMSI: 563020500.

Date/timePositionNaut miles runAvg speedWind from/ knotsBaromVisibWave heightAir tempDewpointWater temp
2017-Nov-11 17:40N 10°32' W 075°49'213.2
2017-Nov-11 17:30N 10°30' W 075°49'712.9
2017-Nov-11 17:00N 10°23' W 075°49'4 9.0
2017-Nov-11 16:30N 10°20' W 075°46'611.8
2017-Nov-11 16:00N 10°19' W 075°40'4 8.9
2017-Nov-11 15:30N 10°19' W 075°35'3 5.7
2017-Nov-11 15:00N 10°20' W 075°32'2 3.4
2017-Nov-11 14:30N 10°21' W 075°31'0 0.9
2017-Nov-11 14:00N 10°21' W 075°30'0 0.0
2017-Nov-11 13:29N 10°21' W 075°30'0 0.0
2017-Nov-11 12:59N 10°21' W 075°30'0 0.0
2017-Nov-11 12:29N 10°21' W 075°30'0 0.0
2017-Nov-11 11:59N 10°21' W 075°30'0 0.0
2017-Nov-11 11:29N 10°21' W 075°30'0 0.0
2017-Nov-11 10:59N 10°21' W 075°30'0 0.0
2017-Nov-11 10:29N 10°21' W 075°30'0 0.0
2017-Nov-11 09:59N 10°21' W 075°30'0 0.0
2017-Nov-11 09:29N 10°21' W 075°30'0 0.0
2017-Nov-11 08:08N 10°21' W 075°30'0 0.0
2017-Nov-11 07:59N 10°21' W 075°30'0 0.0
2017-Nov-11 07:29N 10°21' W 075°30'0 0.0
2017-Nov-11 06:59N 10°21' W 075°30'0 0.0
2017-Nov-11 06:26N 10°21' W 075°30'0 0.0
2017-Nov-11 05:59N 10°21' W 075°30'0 0.0
2017-Nov-11 05:29N 10°21' W 075°30'0 0.0
2017-Nov-11 04:59N 10°21' W 075°30'0 0.0
2017-Nov-11 04:29N 10°21' W 075°30'0 0.0
2017-Nov-11 03:59N 10°21' W 075°30'0 0.0
2017-Nov-11 03:29N 10°21' W 075°30'0 0.0
2017-Nov-11 02:59N 10°21' W 075°30'0 0.0
2017-Nov-11 02:29N 10°21' W 075°30'0 0.0
2017-Nov-11 01:59N 10°21' W 075°30'0 0.0
2017-Nov-11 01:29N 10°21' W 075°30'0 0.0
2017-Nov-11 00:59N 10°21' W 075°30'0 0.0
2017-Nov-11 00:29N 10°21' W 075°30'0 0.0
2017-Nov-10 23:59N 10°21' W 075°30'0 0.0
2017-Nov-10 23:29N 10°21' W 075°30'0 0.0
2017-Nov-10 22:59N 10°21' W 075°30'0 0.0
2017-Nov-10 22:29N 10°21' W 075°30'0 0.0
2017-Nov-10 21:59N 10°21' W 075°30'0 0.0
2017-Nov-10 21:29N 10°21' W 075°30'0 0.0
2017-Nov-10 20:59N 10°21' W 075°30'0 0.0
2017-Nov-10 20:29N 10°21' W 075°30'0 0.0
2017-Nov-10 19:59N 10°21' W 075°30'0 0.0
2017-Nov-10 19:29N 10°21' W 075°30'0 0.0
2017-Nov-10 18:59N 10°21' W 075°30'0 0.0
2017-Nov-10 18:29N 10°21' W 075°30'0 0.0
2017-Nov-10 17:59N 10°21' W 075°30'0 0.0
2017-Nov-10 17:29N 10°21' W 075°30'0 0.0
2017-Nov-10 16:59N 10°21' W 075°30'0 0.0
2017-Nov-10 16:29N 10°21' W 075°30'0 0.0
2017-Nov-10 15:59N 10°21' W 075°30'0 0.0
2017-Nov-10 15:29N 10°21' W 075°30'0 0.0
2017-Nov-10 14:59N 10°21' W 075°30'0 0.0
2017-Nov-10 14:17N 10°21' W 075°30'0 0.0
2017-Nov-10 13:59N 10°21' W 075°30'1 0.1
2017-Nov-09 17:02N 10°20' W 075°31'1 7.9
2017-Nov-09 16:54N 10°19' W 075°32'410.5
2017-Nov-09 16:30N 10°19' W 075°37'3 5.8
2017-Nov-09 16:00N 10°19' W 075°40'4 7.9
2017-Nov-09 15:30N 10°19' W 075°44'611.2
2017-Nov-09 15:00N 10°25' W 075°44'  

Dump ship's entire track history